sensor_id;sensor_type;location;lat;lon;timestamp;pressure;altitude;pressure_sealevel;temperature;humidity
64080;BME280;51042;49.696;10.808;2023-02-13T00:00:51;100540.03;;;0.13;100.00
64080;BME280;51042;49.696;10.808;2023-02-13T00:03:16;100532.88;;;0.09;100.00
64080;BME280;51042;49.696;10.808;2023-02-13T00:05:41;100530.19;;;0.00;100.00
64080;BME280;51042;49.696;10.808;2023-02-13T00:08:07;100531.22;;;-0.10;100.00
64080;BME280;51042;49.696;10.808;2023-02-13T00:10:32;100528.19;;;-0.17;100.00
64080;BME280;51042;49.696;10.808;2023-02-13T00:12:57;100531.81;;;-0.21;100.00
64080;BME280;51042;49.696;10.808;2023-02-13T00:15:22;100532.75;;;-0.26;100.00
64080;BME280;51042;49.696;10.808;2023-02-13T00:17:47;100525.59;;;-0.30;100.00
64080;BME280;51042;49.696;10.808;2023-02-13T00:20:13;100526.84;;;-0.36;100.00
64080;BME280;51042;49.696;10.808;2023-02-13T00:22:38;100518.09;;;-0.42;100.00
64080;BME280;51042;49.696;10.808;2023-02-13T00:25:04;100526.63;;;-0.49;100.00
64080;BME280;51042;49.696;10.808;2023-02-13T00:27:29;100529.56;;;-0.59;100.00
64080;BME280;51042;49.696;10.808;2023-02-13T00:29:54;100521.59;;;-0.64;100.00
64080;BME280;51042;49.696;10.808;2023-02-13T00:32:19;100515.53;;;-0.69;100.00
64080;BME280;51042;49.696;10.808;2023-02-13T00:34:45;100511.06;;;-0.74;100.00
64080;BME280;51042;49.696;10.808;2023-02-13T00:37:10;100512.31;;;-0.80;100.00
64080;BME280;51042;49.696;10.808;2023-02-13T00:39:35;100519.09;;;-0.83;100.00
64080;BME280;51042;49.696;10.808;2023-02-13T00:42:00;100517.03;;;-0.86;100.00
64080;BME280;51042;49.696;10.808;2023-02-13T00:44:25;100526.38;;;-0.83;100.00
64080;BME280;51042;49.696;10.808;2023-02-13T00:46:50;100523.22;;;-0.85;100.00
64080;BME280;51042;49.696;10.808;2023-02-13T00:49:16;100521.13;;;-0.88;100.00
64080;BME280;51042;49.696;10.808;2023-02-13T00:51:41;100527.13;;;-0.91;100.00
64080;BME280;51042;49.696;10.808;2023-02-13T00:54:06;100528.53;;;-0.94;100.00
64080;BME280;51042;49.696;10.808;2023-02-13T00:56:32;100522.97;;;-0.97;100.00
64080;BME280;51042;49.696;10.808;2023-02-13T00:58:57;100519.28;;;-1.01;100.00
64080;BME280;51042;49.696;10.808;2023-02-13T01:01:22;100522.41;;;-1.08;100.00
64080;BME280;51042;49.696;10.808;2023-02-13T01:03:47;100524.44;;;-1.13;100.00
64080;BME280;51042;49.696;10.808;2023-02-13T01:06:12;100516.94;;;-1.16;100.00
64080;BME280;51042;49.696;10.808;2023-02-13T01:08:38;100527.84;;;-1.21;100.00
64080;BME280;51042;49.696;10.808;2023-02-13T01:11:03;100521.97;;;-1.24;100.00
64080;BME280;51042;49.696;10.808;2023-02-13T01:13:29;100518.16;;;-1.23;100.00
64080;BME280;51042;49.696;10.808;2023-02-13T01:15:54;100518.03;;;-1.17;100.00
64080;BME280;51042;49.696;10.808;2023-02-13T01:18:19;100516.94;;;-1.16;100.00
64080;BME280;51042;49.696;10.808;2023-02-13T01:20:45;100521.25;;;-1.15;100.00
64080;BME280;51042;49.696;10.808;2023-02-13T01:23:19;100518.25;;;-1.14;100.00
64080;BME280;51042;49.696;10.808;2023-02-13T01:25:44;100520.44;;;-1.16;100.00
64080;BME280;51042;49.696;10.808;2023-02-13T01:28:09;100516.78;;;-1.20;100.00
64080;BME280;51042;49.696;10.808;2023-02-13T01:30:35;100520.97;;;-1.28;100.00
64080;BME280;51042;49.696;10.808;2023-02-13T01:33:00;100514.13;;;-1.34;100.00
64080;BME280;51042;49.696;10.808;2023-02-13T01:35:25;100506.97;;;-1.38;100.00
64080;BME280;51042;49.696;10.808;2023-02-13T01:37:50;100509.16;;;-1.40;100.00
64080;BME280;51042;49.696;10.808;2023-02-13T01:40:15;100514.53;;;-1.40;100.00
64080;BME280;51042;49.696;10.808;2023-02-13T01:42:41;100508.06;;;-1.39;100.00
64080;BME280;51042;49.696;10.808;2023-02-13T01:45:24;100509.81;;;-1.35;100.00
64080;BME280;51042;49.696;10.808;2023-02-13T01:50:26;100515.47;;;-1.23;100.00
64080;BME280;51042;49.696;10.808;2023-02-13T01:52:59;100522.72;;;-1.09;100.00
64080;BME280;51042;49.696;10.808;2023-02-13T01:55:27;100520.69;;;-1.04;100.00
64080;BME280;51042;49.696;10.808;2023-02-13T01:57:53;100518.31;;;-1.05;100.00
64080;BME280;51042;49.696;10.808;2023-02-13T02:00:21;100514.50;;;-1.04;100.00
64080;BME280;51042;49.696;10.808;2023-02-13T02:02:56;100501.84;;;-1.04;100.00
64080;BME280;51042;49.696;10.808;2023-02-13T02:05:23;100508.75;;;-1.11;100.00
64080;BME280;51042;49.696;10.808;2023-02-13T02:07:50;100509.38;;;-1.14;100.00
64080;BME280;51042;49.696;10.808;2023-02-13T02:10:17;100512.06;;;-1.14;100.00
64080;BME280;51042;49.696;10.808;2023-02-13T02:12:44;100507.66;;;-1.10;100.00
64080;BME280;51042;49.696;10.808;2023-02-13T02:15:11;100505.63;;;-1.05;100.00
64080;BME280;51042;49.696;10.808;2023-02-13T02:17:36;100512.50;;;-0.99;100.00
64080;BME280;51042;49.696;10.808;2023-02-13T02:27:31;100503.03;;;-0.65;100.00
64080;BME280;51042;49.696;10.808;2023-02-13T02:32:48;100515.84;;;-0.71;100.00
64080;BME280;51042;49.696;10.808;2023-02-13T02:38:00;100518.31;;;-0.61;100.00
64080;BME280;51042;49.696;10.808;2023-02-13T02:45:51;100521.00;;;-0.61;100.00
64080;BME280;51042;49.696;10.808;2023-02-13T02:48:21;100516.34;;;-0.69;100.00
64080;BME280;51042;49.696;10.808;2023-02-13T02:51:18;100520.94;;;-0.69;100.00
64080;BME280;51042;49.696;10.808;2023-02-13T02:56:26;100519.34;;;-0.70;100.00
64080;BME280;51042;49.696;10.808;2023-02-13T02:58:55;100512.03;;;-0.70;100.00
64080;BME280;51042;49.696;10.808;2023-02-13T03:01:43;100515.84;;;-0.71;100.00
64080;BME280;51042;49.696;10.808;2023-02-13T03:04:45;100513.09;;;-0.79;100.00
64080;BME280;51042;49.696;10.808;2023-02-13T03:07:30;100514.88;;;-0.75;100.00
64080;BME280;51042;49.696;10.808;2023-02-13T03:09:56;100517.25;;;-0.73;100.00
64080;BME280;51042;49.696;10.808;2023-02-13T03:15:43;100522.59;;;-0.82;100.00
64080;BME280;51042;49.696;10.808;2023-02-13T03:18:28;100525.34;;;-0.73;100.00
64080;BME280;51042;49.696;10.808;2023-02-13T03:21:23;100525.22;;;-0.68;100.00
64080;BME280;51042;49.696;10.808;2023-02-13T03:24:27;100525.81;;;-0.71;100.00
64080;BME280;51042;49.696;10.808;2023-02-13T03:29:27;100521.84;;;-0.74;100.00
64080;BME280;51042;49.696;10.808;2023-02-13T03:33:16;100513.47;;;-0.72;100.00
64080;BME280;51042;49.696;10.808;2023-02-13T03:35:20;100526.44;;;-0.74;100.00
64080;BME280;51042;49.696;10.808;2023-02-13T03:38:10;100525.81;;;-0.71;100.00
64080;BME280;51042;49.696;10.808;2023-02-13T03:40:50;100527.69;;;-0.80;100.00
64080;BME280;51042;49.696;10.808;2023-02-13T03:43:41;100529.28;;;-0.79;100.00
64080;BME280;51042;49.696;10.808;2023-02-13T03:46:09;100527.50;;;-0.84;100.00
64080;BME280;51042;49.696;10.808;2023-02-13T03:48:36;100534.66;;;-0.79;100.00
64080;BME280;51042;49.696;10.808;2023-02-13T03:51:29;100527.94;;;-0.91;100.00
64080;BME280;51042;49.696;10.808;2023-02-13T03:53:57;100527.44;;;-0.93;100.00
64080;BME280;51042;49.696;10.808;2023-02-13T03:56:24;100539.97;;;-0.88;100.00
64080;BME280;51042;49.696;10.808;2023-02-13T03:59:13;100531.00;;;-0.84;100.00
64080;BME280;51042;49.696;10.808;2023-02-13T04:01:43;100525.78;;;-0.80;100.00
64080;BME280;51042;49.696;10.808;2023-02-13T04:06:44;100526.63;;;-0.93;100.00
64080;BME280;51042;49.696;10.808;2023-02-13T04:09:12;100527.94;;;-0.91;100.00
64080;BME280;51042;49.696;10.808;2023-02-13T04:11:42;100529.19;;;-0.88;100.00
64080;BME280;51042;49.696;10.808;2023-02-13T04:14:14;100530.66;;;-0.82;100.00
64080;BME280;51042;49.696;10.808;2023-02-13T04:16:41;100532.28;;;-0.81;100.00
64080;BME280;51042;49.696;10.808;2023-02-13T04:19:08;100535.94;;;-0.77;100.00
64080;BME280;51042;49.696;10.808;2023-02-13T04:21:35;100536.44;;;-0.75;100.00
64080;BME280;51042;49.696;10.808;2023-02-13T04:24:01;100532.44;;;-0.77;100.00
64080;BME280;51042;49.696;10.808;2023-02-13T04:26:32;100528.78;;;-0.82;100.00
64080;BME280;51042;49.696;10.808;2023-02-13T04:28:57;100528.78;;;-0.82;100.00
64080;BME280;51042;49.696;10.808;2023-02-13T04:31:22;100525.91;;;-0.85;100.00
64080;BME280;51042;49.696;10.808;2023-02-13T04:33:47;100533.91;;;-0.94;100.00
64080;BME280;51042;49.696;10.808;2023-02-13T04:36:13;100524.00;;;-0.85;100.00
64080;BME280;51042;49.696;10.808;2023-02-13T04:38:38;100530.25;;;-0.75;100.00
64080;BME280;51042;49.696;10.808;2023-02-13T04:41:03;100529.31;;;-0.71;100.00
64080;BME280;51042;49.696;10.808;2023-02-13T04:43:29;100532.13;;;-0.76;100.00
64080;BME280;51042;49.696;10.808;2023-02-13T04:45:54;100532.28;;;-0.81;100.00
64080;BME280;51042;49.696;10.808;2023-02-13T04:48:19;100535.25;;;-1.05;100.00
64080;BME280;51042;49.696;10.808;2023-02-13T04:50:44;100528.34;;;-1.19;100.00
64080;BME280;51042;49.696;10.808;2023-02-13T04:53:10;100529.25;;;-1.24;100.00
64080;BME280;51042;49.696;10.808;2023-02-13T04:55:35;100525.94;;;-1.21;100.00
64080;BME280;51042;49.696;10.808;2023-02-13T04:58:00;100527.72;;;-1.16;100.00
64080;BME280;51042;49.696;10.808;2023-02-13T05:00:26;100527.22;;;-1.18;100.00
64080;BME280;51042;49.696;10.808;2023-02-13T05:02:52;100525.66;;;-1.19;100.00
64080;BME280;51042;49.696;10.808;2023-02-13T05:05:17;100535.97;;;-1.13;100.00
64080;BME280;51042;49.696;10.808;2023-02-13T05:07:43;100529.56;;;-1.03;100.00
64080;BME280;51042;49.696;10.808;2023-02-13T05:10:09;100526.47;;;-0.97;100.00
64080;BME280;51042;49.696;10.808;2023-02-13T05:12:34;100532.16;;;-0.98;100.00
64080;BME280;51042;49.696;10.808;2023-02-13T05:14:59;100534.84;;;-0.98;100.00
64080;BME280;51042;49.696;10.808;2023-02-13T05:17:25;100533.78;;;-0.89;100.00
64080;BME280;51042;49.696;10.808;2023-02-13T05:19:50;100537.28;;;-0.88;100.00
64080;BME280;51042;49.696;10.808;2023-02-13T05:22:15;100540.19;;;-0.85;100.00
64080;BME280;51042;49.696;10.808;2023-02-13T05:24:58;100543.19;;;-0.86;100.00
64080;BME280;51042;49.696;10.808;2023-02-13T05:27:24;100544.94;;;-0.82;100.00
64080;BME280;51042;49.696;10.808;2023-02-13T05:29:49;100547.16;;;-0.84;100.00
64080;BME280;51042;49.696;10.808;2023-02-13T05:32:14;100542.53;;;-0.83;100.00
64080;BME280;51042;49.696;10.808;2023-02-13T05:34:39;100557.25;;;-0.89;100.00
64080;BME280;51042;49.696;10.808;2023-02-13T05:37:04;100549.97;;;-0.89;100.00
64080;BME280;51042;49.696;10.808;2023-02-13T05:39:29;100553.16;;;-0.87;100.00
64080;BME280;51042;49.696;10.808;2023-02-13T05:41:55;100549.66;;;-0.87;100.00
64080;BME280;51042;49.696;10.808;2023-02-13T05:44:20;100549.28;;;-0.94;100.00
64080;BME280;51042;49.696;10.808;2023-02-13T05:46:45;100566.88;;;-0.97;100.00
64080;BME280;51042;49.696;10.808;2023-02-13T05:49:11;100556.28;;;-0.93;100.00
64080;BME280;51042;49.696;10.808;2023-02-13T05:51:36;100559.34;;;-0.86;100.00
64080;BME280;51042;49.696;10.808;2023-02-13T05:54:01;100562.84;;;-0.86;100.00
64080;BME280;51042;49.696;10.808;2023-02-13T05:56:26;100558.66;;;-0.92;100.00
64080;BME280;51042;49.696;10.808;2023-02-13T05:58:52;100562.97;;;-0.91;100.00
64080;BME280;51042;49.696;10.808;2023-02-13T06:01:17;100566.47;;;-0.90;100.00
64080;BME280;51042;49.696;10.808;2023-02-13T06:03:43;100564.44;;;-0.85;100.00
64080;BME280;51042;49.696;10.808;2023-02-13T06:06:08;100566.94;;;-0.88;100.00
64080;BME280;51042;49.696;10.808;2023-02-13T06:08:33;100570.63;;;-0.84;100.00
64080;BME280;51042;49.696;10.808;2023-02-13T06:10:58;100569.03;;;-0.85;100.00
64080;BME280;51042;49.696;10.808;2023-02-13T06:13:24;100567.84;;;-0.93;100.00
64080;BME280;51042;49.696;10.808;2023-02-13T06:15:49;100572.75;;;-0.95;100.00
64080;BME280;51042;49.696;10.808;2023-02-13T06:18:15;100578.50;;;-0.88;100.00
64080;BME280;51042;49.696;10.808;2023-02-13T06:20:40;100573.78;;;-0.82;100.00
64080;BME280;51042;49.696;10.808;2023-02-13T06:23:05;100578.09;;;-0.81;100.00
64080;BME280;51042;49.696;10.808;2023-02-13T06:25:30;100583.06;;;-0.74;100.00
64080;BME280;51042;49.696;10.808;2023-02-13T06:27:55;100582.88;;;-0.78;100.00
64080;BME280;51042;49.696;10.808;2023-02-13T06:30:21;100586.03;;;-0.76;100.00
64080;BME280;51042;49.696;10.808;2023-02-13T06:32:46;100591.63;;;-0.72;100.00
64080;BME280;51042;49.696;10.808;2023-02-13T06:35:12;100592.25;;;-0.75;100.00
64080;BME280;51042;49.696;10.808;2023-02-13T06:37:37;100598.72;;;-0.76;100.00
64080;BME280;51042;49.696;10.808;2023-02-13T06:40:03;100600.16;;;-0.79;100.00
64080;BME280;51042;49.696;10.808;2023-02-13T06:42:29;100598.25;;;-0.78;100.00
64080;BME280;51042;49.696;10.808;2023-02-13T06:44:54;100605.16;;;-0.86;100.00
64080;BME280;51042;49.696;10.808;2023-02-13T06:47:19;100606.88;;;-0.90;100.00
64080;BME280;51042;49.696;10.808;2023-02-13T06:49:44;100607.28;;;-0.97;100.00
64080;BME280;51042;49.696;10.808;2023-02-13T06:52:09;100612.59;;;-1.05;100.00
64080;BME280;51042;49.696;10.808;2023-02-13T06:54:34;100611.31;;;-1.08;100.00
64080;BME280;51042;49.696;10.808;2023-02-13T06:57:00;100609.75;;;-1.23;100.00
64080;BME280;51042;49.696;10.808;2023-02-13T06:59:25;100607.56;;;-1.34;100.00
64080;BME280;51042;49.696;10.808;2023-02-13T07:01:50;100612.44;;;-1.36;100.00
64080;BME280;51042;49.696;10.808;2023-02-13T07:04:15;100618.94;;;-1.37;100.00
64080;BME280;51042;49.696;10.808;2023-02-13T07:06:40;100612.56;;;-1.41;100.00
64080;BME280;51042;49.696;10.808;2023-02-13T07:09:06;100621.03;;;-1.48;100.00
64080;BME280;51042;49.696;10.808;2023-02-13T07:11:31;100619.75;;;-1.50;100.00
64080;BME280;51042;49.696;10.808;2023-02-13T07:13:56;100623.03;;;-1.53;100.00
64080;BME280;51042;49.696;10.808;2023-02-13T07:16:21;100624.44;;;-1.56;100.00
64080;BME280;51042;49.696;10.808;2023-02-13T07:18:47;100624.63;;;-1.52;100.00
64080;BME280;51042;49.696;10.808;2023-02-13T07:21:12;100638.69;;;-1.55;100.00
64080;BME280;51042;49.696;10.808;2023-02-13T07:23:37;100629.81;;;-1.42;100.00
64080;BME280;51042;49.696;10.808;2023-02-13T07:26:02;100624.41;;;-1.42;100.00
64080;BME280;51042;49.696;10.808;2023-02-13T07:28:28;100635.00;;;-1.46;100.00
64080;BME280;51042;49.696;10.808;2023-02-13T07:30:53;100628.13;;;-1.52;100.00
64080;BME280;51042;49.696;10.808;2023-02-13T07:33:18;100634.19;;;-1.46;100.00
64080;BME280;51042;49.696;10.808;2023-02-13T07:35:47;100631.22;;;-1.45;100.00
64080;BME280;51042;49.696;10.808;2023-02-13T07:38:13;100637.97;;;-1.47;100.00
64080;BME280;51042;49.696;10.808;2023-02-13T07:40:38;100635.91;;;-1.50;100.00
64080;BME280;51042;49.696;10.808;2023-02-13T07:43:03;100628.72;;;-1.41;100.00
64080;BME280;51042;49.696;10.808;2023-02-13T07:45:28;100630.72;;;-1.33;100.00
64080;BME280;51042;49.696;10.808;2023-02-13T07:47:54;100627.09;;;-1.29;100.00
64080;BME280;51042;49.696;10.808;2023-02-13T07:50:20;100628.09;;;-1.25;100.00
64080;BME280;51042;49.696;10.808;2023-02-13T07:52:51;100629.78;;;-1.15;100.00
64080;BME280;51042;49.696;10.808;2023-02-13T07:55:16;100623.38;;;-1.05;100.00
64080;BME280;51042;49.696;10.808;2023-02-13T07:57:42;100626.22;;;-0.88;100.00
64080;BME280;51042;49.696;10.808;2023-02-13T08:00:07;100622.66;;;-0.97;100.00
64080;BME280;51042;49.696;10.808;2023-02-13T08:02:32;100624.47;;;-1.06;100.00
64080;BME280;51042;49.696;10.808;2023-02-13T08:04:57;100624.78;;;-1.08;100.00
64080;BME280;51042;49.696;10.808;2023-02-13T08:07:23;100632.88;;;-1.08;100.00
64080;BME280;51042;49.696;10.808;2023-02-13T08:09:48;100627.53;;;-0.99;100.00
64080;BME280;51042;49.696;10.808;2023-02-13T08:12:32;100633.22;;;-0.87;100.00
64080;BME280;51042;49.696;10.808;2023-02-13T08:14:59;100628.22;;;-0.94;100.00
64080;BME280;51042;49.696;10.808;2023-02-13T08:17:24;100635.22;;;-0.93;100.00
64080;BME280;51042;49.696;10.808;2023-02-13T08:19:49;100631.66;;;-1.02;100.00
64080;BME280;51042;49.696;10.808;2023-02-13T08:22:14;100630.75;;;-0.97;100.00
64080;BME280;51042;49.696;10.808;2023-02-13T08:24:40;100632.69;;;-0.89;100.00
64080;BME280;51042;49.696;10.808;2023-02-13T08:27:05;100625.22;;;-0.78;100.00
64080;BME280;51042;49.696;10.808;2023-02-13T08:29:30;100627.31;;;-0.89;100.00
64080;BME280;51042;49.696;10.808;2023-02-13T08:31:55;100630.19;;;-0.72;100.00
64080;BME280;51042;49.696;10.808;2023-02-13T08:34:20;100624.72;;;-0.58;100.00
64080;BME280;51042;49.696;10.808;2023-02-13T08:36:45;100632.50;;;-0.57;100.00
64080;BME280;51042;49.696;10.808;2023-02-13T08:39:10;100631.72;;;-0.57;100.00
64080;BME280;51042;49.696;10.808;2023-02-13T08:41:36;100628.59;;;-0.51;100.00
64080;BME280;51042;49.696;10.808;2023-02-13T08:44:01;100630.59;;;-0.56;100.00
64080;BME280;51042;49.696;10.808;2023-02-13T08:46:26;100629.91;;;-0.84;100.00
64080;BME280;51042;49.696;10.808;2023-02-13T08:48:53;100628.88;;;-0.74;100.00
64080;BME280;51042;49.696;10.808;2023-02-13T08:51:18;100626.06;;;-0.69;100.00
64080;BME280;51042;49.696;10.808;2023-02-13T08:53:44;100627.91;;;-0.56;100.00
64080;BME280;51042;49.696;10.808;2023-02-13T08:56:09;100631.03;;;-0.41;100.00
64080;BME280;51042;49.696;10.808;2023-02-13T08:58:35;100634.72;;;-0.36;100.00
64080;BME280;51042;49.696;10.808;2023-02-13T09:01:03;100632.13;;;-0.42;100.00
64080;BME280;51042;49.696;10.808;2023-02-13T09:03:28;100629.81;;;-0.57;100.00
64080;BME280;51042;49.696;10.808;2023-02-13T09:05:57;100642.88;;;-0.50;100.00
64080;BME280;51042;49.696;10.808;2023-02-13T09:08:22;100635.75;;;-0.46;100.00
64080;BME280;51042;49.696;10.808;2023-02-13T09:10:54;100637.19;;;-0.49;100.00
64080;BME280;51042;49.696;10.808;2023-02-13T09:13:19;100636.13;;;-0.39;100.00
64080;BME280;51042;49.696;10.808;2023-02-13T09:15:44;100637.09;;;-0.13;100.00
64080;BME280;51042;49.696;10.808;2023-02-13T09:18:09;100637.94;;;-0.04;100.00
64080;BME280;51042;49.696;10.808;2023-02-13T09:20:34;100640.84;;;0.09;100.00
64080;BME280;51042;49.696;10.808;2023-02-13T09:23:00;100638.00;;;0.05;100.00
64080;BME280;51042;49.696;10.808;2023-02-13T09:25:25;100640.25;;;-0.11;100.00
64080;BME280;51042;49.696;10.808;2023-02-13T09:27:50;100636.66;;;-0.06;100.00
64080;BME280;51042;49.696;10.808;2023-02-13T09:30:15;100625.09;;;0.02;100.00
64080;BME280;51042;49.696;10.808;2023-02-13T09:32:47;100645.91;;;-0.21;100.00
64080;BME280;51042;49.696;10.808;2023-02-13T09:35:12;100648.72;;;-0.04;100.00
64080;BME280;51042;49.696;10.808;2023-02-13T09:37:38;100641.72;;;-0.05;100.00
64080;BME280;51042;49.696;10.808;2023-02-13T09:40:04;100645.16;;;0.10;100.00
64080;BME280;51042;49.696;10.808;2023-02-13T09:42:30;100642.72;;;0.39;100.00
64080;BME280;51042;49.696;10.808;2023-02-13T09:45:00;100642.78;;;0.56;100.00
64080;BME280;51042;49.696;10.808;2023-02-13T09:47:30;100642.03;;;0.64;100.00
64080;BME280;51042;49.696;10.808;2023-02-13T09:50:02;100643.91;;;0.55;100.00
64080;BME280;51042;49.696;10.808;2023-02-13T09:52:31;100643.63;;;0.65;100.00
64080;BME280;51042;49.696;10.808;2023-02-13T09:54:57;100642.53;;;0.83;100.00
64080;BME280;51042;49.696;10.808;2023-02-13T09:57:34;100645.28;;;0.92;100.00
64080;BME280;51042;49.696;10.808;2023-02-13T10:00:19;100650.78;;;0.70;100.00
64080;BME280;51042;49.696;10.808;2023-02-13T10:05:40;100640.44;;;0.72;100.00
64080;BME280;51042;49.696;10.808;2023-02-13T10:08:37;100641.78;;;0.92;100.00
64080;BME280;51042;49.696;10.808;2023-02-13T10:18:52;100649.06;;;0.82;100.00
64080;BME280;51042;49.696;10.808;2023-02-13T10:21:23;100646.41;;;1.08;100.00
64080;BME280;51042;49.696;10.808;2023-02-13T10:24:34;100640.84;;;1.13;100.00
64080;BME280;51042;49.696;10.808;2023-02-13T10:26:39;100645.63;;;1.34;100.00
64080;BME280;51042;49.696;10.808;2023-02-13T10:29:32;100644.81;;;1.16;100.00
64080;BME280;51042;49.696;10.808;2023-02-13T10:32:11;100639.59;;;1.28;100.00
64080;BME280;51042;49.696;10.808;2023-02-13T10:34:43;100636.84;;;0.94;100.00
64080;BME280;51042;49.696;10.808;2023-02-13T10:37:13;100636.88;;;1.11;100.00
64080;BME280;51042;49.696;10.808;2023-02-13T10:39:39;100631.00;;;1.17;100.00
64080;BME280;51042;49.696;10.808;2023-02-13T10:50:02;100635.13;;;1.15;100.00
64080;BME280;51042;49.696;10.808;2023-02-13T11:00:23;100636.25;;;1.48;100.00
64080;BME280;51042;49.696;10.808;2023-02-13T11:02:49;100629.56;;;1.37;100.00
64080;BME280;51042;49.696;10.808;2023-02-13T11:05:19;100625.44;;;1.22;100.00
64080;BME280;51042;49.696;10.808;2023-02-13T11:07:45;100629.88;;;1.18;100.00
64080;BME280;51042;49.696;10.808;2023-02-13T11:12:39;100627.66;;;1.29;100.00
64080;BME280;51042;49.696;10.808;2023-02-13T11:15:05;100624.44;;;1.61;100.00
64080;BME280;51042;49.696;10.808;2023-02-13T11:17:31;100617.72;;;1.85;100.00
64080;BME280;51042;49.696;10.808;2023-02-13T11:20:00;100612.16;;;1.90;100.00
64080;BME280;51042;49.696;10.808;2023-02-13T11:22:34;100612.81;;;1.78;100.00
64080;BME280;51042;49.696;10.808;2023-02-13T11:25:22;100611.00;;;1.91;100.00
64080;BME280;51042;49.696;10.808;2023-02-13T11:27:46;100613.97;;;1.60;100.00
64080;BME280;51042;49.696;10.808;2023-02-13T11:32:55;100621.09;;;1.56;100.00
64080;BME280;51042;49.696;10.808;2023-02-13T11:35:26;100612.19;;;1.55;100.00
64080;BME280;51042;49.696;10.808;2023-02-13T11:38:10;100616.94;;;1.67;100.00
64080;BME280;51042;49.696;10.808;2023-02-13T11:40:35;100619.44;;;1.98;100.00
64080;BME280;51042;49.696;10.808;2023-02-13T11:43:01;100620.91;;;1.87;100.00
64080;BME280;51042;49.696;10.808;2023-02-13T11:45:26;100613.09;;;1.85;100.00
64080;BME280;51042;49.696;10.808;2023-02-13T11:47:52;100611.34;;;1.81;100.00
64080;BME280;51042;49.696;10.808;2023-02-13T11:50:25;100622.31;;;1.93;100.00
64080;BME280;51042;49.696;10.808;2023-02-13T11:52:52;100615.81;;;1.85;100.00
64080;BME280;51042;49.696;10.808;2023-02-13T11:55:31;100613.78;;;1.65;100.00
64080;BME280;51042;49.696;10.808;2023-02-13T11:57:58;100608.16;;;1.87;100.00
64080;BME280;51042;49.696;10.808;2023-02-13T12:00:28;100602.69;;;2.13;100.00
64080;BME280;51042;49.696;10.808;2023-02-13T12:02:56;100605.63;;;2.29;100.00
64080;BME280;51042;49.696;10.808;2023-02-13T12:05:23;100598.09;;;2.43;100.00
64080;BME280;51042;49.696;10.808;2023-02-13T12:07:48;100599.78;;;2.56;100.00
64080;BME280;51042;49.696;10.808;2023-02-13T12:12:43;100601.66;;;2.85;100.00
64080;BME280;51042;49.696;10.808;2023-02-13T12:15:17;100588.34;;;2.71;100.00
64080;BME280;51042;49.696;10.808;2023-02-13T12:17:44;100588.06;;;2.64;100.00
64080;BME280;51042;49.696;10.808;2023-02-13T12:20:14;100577.34;;;2.97;100.00
64080;BME280;51042;49.696;10.808;2023-02-13T12:22:43;100578.97;;;3.10;100.00
64080;BME280;51042;49.696;10.808;2023-02-13T12:32:47;100566.19;;;3.32;100.00
64080;BME280;51042;49.696;10.808;2023-02-13T12:35:26;100554.75;;;3.59;100.00
64080;BME280;51042;49.696;10.808;2023-02-13T12:38:09;100551.56;;;4.02;100.00
64080;BME280;51042;49.696;10.808;2023-02-13T12:40:56;100552.59;;;4.09;100.00
64080;BME280;51042;49.696;10.808;2023-02-13T12:46:30;100549.97;;;4.62;100.00
64080;BME280;51042;49.696;10.808;2023-02-13T12:49:08;100542.38;;;4.43;97.89
64080;BME280;51042;49.696;10.808;2023-02-13T12:51:51;100540.44;;;4.56;96.55
64080;BME280;51042;49.696;10.808;2023-02-13T12:54:36;100535.78;;;4.68;94.87
64080;BME280;51042;49.696;10.808;2023-02-13T13:04:42;100528.94;;;4.46;97.07
64080;BME280;51042;49.696;10.808;2023-02-13T13:15:06;100523.41;;;5.39;90.49
64080;BME280;51042;49.696;10.808;2023-02-13T13:17:42;100514.50;;;5.26;92.94
64080;BME280;51042;49.696;10.808;2023-02-13T13:27:44;100500.53;;;5.71;91.88
64080;BME280;51042;49.696;10.808;2023-02-13T13:30:19;100494.13;;;5.79;90.82
64080;BME280;51042;49.696;10.808;2023-02-13T13:32:47;100497.81;;;5.87;90.47
64080;BME280;51042;49.696;10.808;2023-02-13T13:35:15;100493.78;;;5.81;90.10
64080;BME280;51042;49.696;10.808;2023-02-13T13:40:31;100496.75;;;6.23;87.21
64080;BME280;51042;49.696;10.808;2023-02-13T13:42:59;100498.88;;;6.29;88.11
64080;BME280;51042;49.696;10.808;2023-02-13T13:45:33;100496.88;;;6.45;87.18
64080;BME280;51042;49.696;10.808;2023-02-13T13:48:06;100484.91;;;6.85;85.31
64080;BME280;51042;49.696;10.808;2023-02-13T13:50:38;100478.63;;;6.65;83.94
64080;BME280;51042;49.696;10.808;2023-02-13T13:58:20;100478.84;;;6.76;83.98
64080;BME280;51042;49.696;10.808;2023-02-13T14:00:46;100479.50;;;6.88;84.09
64080;BME280;51042;49.696;10.808;2023-02-13T14:03:35;100479.41;;;7.04;84.29
64080;BME280;51042;49.696;10.808;2023-02-13T14:06:19;100473.31;;;7.11;84.24
64080;BME280;51042;49.696;10.808;2023-02-13T14:08:52;100470.81;;;6.83;84.30
64080;BME280;51042;49.696;10.808;2023-02-13T14:11:37;100466.41;;;6.97;85.39
64080;BME280;51042;49.696;10.808;2023-02-13T14:16:54;100465.81;;;7.27;83.11
64080;BME280;51042;49.696;10.808;2023-02-13T14:19:45;100463.84;;;7.47;82.63
64080;BME280;51042;49.696;10.808;2023-02-13T14:25:00;100465.06;;;7.72;81.24
64080;BME280;51042;49.696;10.808;2023-02-13T14:27:36;100474.22;;;7.37;81.95
64080;BME280;51042;49.696;10.808;2023-02-13T14:30:02;100468.88;;;7.03;83.44
64080;BME280;51042;49.696;10.808;2023-02-13T14:32:37;100476.19;;;6.98;84.29
64080;BME280;51042;49.696;10.808;2023-02-13T14:35:16;100468.50;;;7.04;83.68